Time;durP1;ratioP1;P1;durP2;ratioP2;P2;SDS_P1;SDS_P2;PMS_P1;PMS_P2;Temp;Humidity;BMP_temperature;BMP_pressure;BME280_temperature;BME280_humidity;BME280_pressure;Samples;Min_cycle;Max_cycle;Signal;HPM_P1;HPM_P2
2023/03/27 00:01:18;;;;;;;1.77;0.60;;;;;;;;;;5025294;28;20432;-34
2023/03/27 00:03:47;;;;;;;0.73;0.73;;;;;;;;;;5022105;28;20237;-32
2023/03/27 00:06:15;;;;;;;2.60;0.87;;;;;;;;;;5021608;28;20203;-36
2023/03/27 00:08:45;;;;;;;2.00;0.90;;;;;;;;;;5011150;28;20211;-34
2023/03/27 00:11:12;;;;;;;0.50;0.40;;;;;;;;;;5013798;28;20404;-34
2023/03/27 00:13:40;;;;;;;3.00;0.50;;;;;;;;;;5028879;28;20231;-36
2023/03/27 00:16:08;;;;;;;0.57;0.57;;;;;;;;;;5021910;28;20284;-35
2023/03/27 00:18:36;;;;;;;0.43;0.40;;;;;;;;;;5019785;28;20200;-33
2023/03/27 00:21:03;;;;;;;0.60;0.57;;;;;;;;;;5030759;28;20218;-36
2023/03/27 00:23:31;;;;;;;0.60;0.50;;;;;;;;;;5018506;28;20227;-38
2023/03/27 00:26:00;;;;;;;0.50;0.50;;;;;;;;;;5016495;28;20203;-34
2023/03/27 00:28:28;;;;;;;1.03;0.70;;;;;;;;;;5012472;28;20591;-38
2023/03/27 00:30:55;;;;;;;0.50;0.50;;;;;;;;;;5013828;28;20198;-40
2023/03/27 00:33:23;;;;;;;0.70;0.70;;;;;;;;;;5021454;28;20227;-34
2023/03/27 00:35:50;;;;;;;0.80;0.80;;;;;;;;;;5015613;28;20222;-33
2023/03/27 00:38:18;;;;;;;0.43;0.43;;;;;;;;;;5029649;28;20213;-37
2023/03/27 00:40:46;;;;;;;0.47;0.47;;;;;;;;;;5016314;28;20203;-33
2023/03/27 00:43:23;;;;;;;0.80;0.60;;;;;;;;;;5016857;28;20309;-32
2023/03/27 00:45:51;;;;;;;1.10;0.57;;;;;;;;;;5015209;28;20195;-39
2023/03/27 00:48:19;;;;;;;0.87;0.57;;;;;;;;;;5017913;28;20286;-36
2023/03/27 00:50:47;;;;;;;0.47;0.47;;;;;;;;;;5010145;28;20294;-39
2023/03/27 00:53:16;;;;;;;0.60;0.60;;;;;;;;;;5009416;28;20728;-34
2023/03/27 00:55:45;;;;;;;0.43;0.43;;;;;;;;;;5009136;28;20226;-40
2023/03/27 00:58:15;;;;;;;0.40;0.40;;;;;;;;;;5017762;28;20204;-37
2023/03/27 01:00:43;;;;;;;1.13;0.40;;;;;;;;;;5014192;28;20672;-37
2023/03/27 01:03:12;;;;;;;0.60;0.60;;;;;;;;;;5020030;28;20318;-37
2023/03/27 01:05:39;;;;;;;0.40;0.40;;;;;;;;;;5020606;28;20199;-32
2023/03/27 01:08:06;;;;;;;0.53;0.53;;;;;;;;;;5029546;28;20248;-34
2023/03/27 01:10:41;;;;;;;0.30;0.30;;;;;;;;;;5021406;28;20203;-37
2023/03/27 01:13:12;;;;;;;0.40;0.40;;;;;;;;;;5015310;28;20230;-35
2023/03/27 01:15:42;;;;;;;0.63;0.63;;;;;;;;;;5017295;28;20222;-36
2023/03/27 01:18:15;;;;;;;0.40;0.40;;;;;;;;;;5022900;28;20207;-36
2023/03/27 01:20:56;;;;;;;0.50;0.50;;;;;;;;;;5009818;28;20203;-36
2023/03/27 01:23:30;;;;;;;0.30;0.30;;;;;;;;;;5010093;28;20237;-33
2023/03/27 01:26:12;;;;;;;0.27;0.27;;;;;;;;;;5020948;28;20203;-35
2023/03/27 01:28:43;;;;;;;0.40;0.40;;;;;;;;;;5007791;28;20214;-34
2023/03/27 01:31:26;;;;;;;0.40;0.40;;;;;;;;;;5010159;28;20199;-36
2023/03/27 01:34:08;;;;;;;0.43;0.43;;;;;;;;;;5020940;28;20293;-37
2023/03/27 01:36:43;;;;;;;0.40;0.40;;;;;;;;;;5026531;28;20712;-38
2023/03/27 01:39:25;;;;;;;0.70;0.70;;;;;;;;;;5018778;28;20207;-37
2023/03/27 01:41:56;;;;;;;0.40;0.40;;;;;;;;;;5020735;28;20200;-36
2023/03/27 01:44:30;;;;;;;0.60;0.40;;;;;;;;;;5030277;28;20234;-32
2023/03/27 01:47:01;;;;;;;0.50;0.50;;;;;;;;;;5026464;28;20748;-33
2023/03/27 01:49:29;;;;;;;0.50;0.50;;;;;;;;;;5024583;28;20190;-33
2023/03/27 01:51:58;;;;;;;0.70;0.60;;;;;;;;;;5032460;28;20206;-37
2023/03/27 01:54:27;;;;;;;0.50;0.50;;;;;;;;;;5024284;28;20234;-33
2023/03/27 01:57:01;;;;;;;0.60;0.60;;;;;;;;;;5028163;28;20230;-37
2023/03/27 01:59:29;;;;;;;0.60;0.60;;;;;;;;;;5014100;28;20207;-35
2023/03/27 02:01:59;;;;;;;0.60;0.60;;;;;;;;;;5020619;28;20290;-33
2023/03/27 02:04:28;;;;;;;0.60;0.60;;;;;;;;;;5019819;28;20289;-38
2023/03/27 02:06:57;;;;;;;0.67;0.60;;;;;;;;;;5012799;28;20499;-35
2023/03/27 02:09:27;;;;;;;0.40;0.40;;;;;;;;;;5022884;28;20226;-34
2023/03/27 02:11:59;;;;;;;1.80;0.60;;;;;;;;;;5023680;28;20501;-38
2023/03/27 02:14:28;;;;;;;1.73;0.70;;;;;;;;;;5020839;28;20224;-36
2023/03/27 02:16:58;;;;;;;1.67;0.67;;;;;;;;;;5016555;28;20267;-37
2023/03/27 02:19:32;;;;;;;1.23;0.63;;;;;;;;;;5020504;28;20199;-35
2023/03/27 02:21:59;;;;;;;0.67;0.67;;;;;;;;;;5012414;28;20206;-35
2023/03/27 02:24:26;;;;;;;0.80;0.80;;;;;;;;;;5013640;28;20230;-33
2023/03/27 02:26:56;;;;;;;1.10;0.60;;;;;;;;;;5018759;28;20223;-33
2023/03/27 02:29:33;;;;;;;0.80;0.80;;;;;;;;;;5024012;28;20250;-37
2023/03/27 02:32:08;;;;;;;1.47;0.70;;;;;;;;;;5018175;28;20205;-32
2023/03/27 02:34:49;;;;;;;1.60;0.93;;;;;;;;;;5015925;28;20195;-33
2023/03/27 02:37:20;;;;;;;1.60;0.70;;;;;;;;;;5012620;28;20226;-38
2023/03/27 02:39:52;;;;;;;0.83;0.83;;;;;;;;;;5016011;28;20300;-36
2023/03/27 02:42:21;;;;;;;0.93;0.93;;;;;;;;;;5030892;28;20203;-38
2023/03/27 02:44:51;;;;;;;0.70;0.70;;;;;;;;;;5298542;23;20225;-28
2023/03/27 02:47:23;;;;;;;0.60;0.60;;;;;;;;;;5039059;28;20196;-28
2023/03/27 02:49:52;;;;;;;1.43;1.00;;;;;;;;;;5050721;28;20237;-28
2023/03/27 02:52:23;;;;;;;0.77;0.77;;;;;;;;;;5045573;28;20305;-30
2023/03/27 02:54:53;;;;;;;0.70;0.70;;;;;;;;;;5025369;28;20213;-25
2023/03/27 02:57:22;;;;;;;1.10;1.00;;;;;;;;;;5031438;28;20215;-27
2023/03/27 02:59:52;;;;;;;0.87;0.80;;;;;;;;;;5028114;28;20203;-29
2023/03/27 03:02:21;;;;;;;0.90;0.90;;;;;;;;;;5024038;28;20206;-27
2023/03/27 03:04:55;;;;;;;0.93;0.93;;;;;;;;;;5015349;28;20214;-27
2023/03/27 03:07:25;;;;;;;1.00;0.70;;;;;;;;;;5012262;28;20237;-27
2023/03/27 03:09:52;;;;;;;1.53;0.80;;;;;;;;;;5018114;28;20203;-29
2023/03/27 03:12:20;;;;;;;1.17;1.07;;;;;;;;;;5030763;28;20206;-30
2023/03/27 03:14:47;;;;;;;0.70;0.70;;;;;;;;;;5022472;28;20206;-26
2023/03/27 03:17:16;;;;;;;0.67;0.63;;;;;;;;;;5015462;28;20231;-27
2023/03/27 03:19:43;;;;;;;0.70;0.70;;;;;;;;;;5010954;28;20199;-26
2023/03/27 03:22:11;;;;;;;0.80;0.80;;;;;;;;;;5011455;28;20217;-30
2023/03/27 03:24:40;;;;;;;1.00;1.00;;;;;;;;;;5023070;28;20210;-30
2023/03/27 03:27:07;;;;;;;3.17;1.30;;;;;;;;;;5025058;28;20232;-28
2023/03/27 03:29:35;;;;;;;3.33;0.77;;;;;;;;;;5013357;28;20246;-24
2023/03/27 03:32:03;;;;;;;1.10;0.93;;;;;;;;;;5025458;28;20210;-30
2023/03/27 03:34:32;;;;;;;3.13;1.33;;;;;;;;;;5018856;28;20219;-27
2023/03/27 03:36:59;;;;;;;3.50;0.80;;;;;;;;;;5011522;28;20231;-28
2023/03/27 03:39:26;;;;;;;1.57;1.47;;;;;;;;;;5025028;28;20214;-26
2023/03/27 03:41:53;;;;;;;4.37;1.73;;;;;;;;;;5026301;28;20219;-25
2023/03/27 03:44:20;;;;;;;1.20;0.67;;;;;;;;;;5021717;28;20230;-29
2023/03/27 03:46:48;;;;;;;1.20;1.10;;;;;;;;;;5028994;28;20207;-25
2023/03/27 03:49:15;;;;;;;1.80;1.10;;;;;;;;;;5030370;28;20203;-26
2023/03/27 03:51:43;;;;;;;3.23;1.00;;;;;;;;;;5030305;28;20206;-26
2023/03/27 03:54:10;;;;;;;3.63;1.30;;;;;;;;;;5032286;28;20226;-29
2023/03/27 03:56:40;;;;;;;2.07;1.07;;;;;;;;;;5013314;28;20243;-29
2023/03/27 03:59:08;;;;;;;3.30;1.30;;;;;;;;;;5023834;28;20203;-26
2023/03/27 04:01:35;;;;;;;0.53;0.53;;;;;;;;;;5022145;28;20260;-26
2023/03/27 04:04:02;;;;;;;1.97;1.30;;;;;;;;;;5029208;28;20297;-25
2023/03/27 04:06:31;;;;;;;1.43;0.90;;;;;;;;;;5030631;28;20206;-31
2023/03/27 04:08:59;;;;;;;1.87;1.10;;;;;;;;;;5024920;28;20217;-27
2023/03/27 04:11:27;;;;;;;6.87;1.50;;;;;;;;;;5018373;28;20200;-28
2023/03/27 04:13:54;;;;;;;2.07;1.00;;;;;;;;;;5030558;28;20229;-28
2023/03/27 04:16:21;;;;;;;3.97;1.37;;;;;;;;;;5028624;28;20222;-26
2023/03/27 04:18:49;;;;;;;3.00;1.00;;;;;;;;;;5018764;28;20195;-29
2023/03/27 04:21:16;;;;;;;5.87;1.30;;;;;;;;;;5011289;28;20222;-26
2023/03/27 04:23:44;;;;;;;3.90;1.00;;;;;;;;;;5012761;28;20235;-27
2023/03/27 04:26:14;;;;;;;3.67;1.00;;;;;;;;;;5028326;28;20260;-26
2023/03/27 04:28:41;;;;;;;4.30;1.27;;;;;;;;;;5011879;28;20203;-25
2023/03/27 04:31:10;;;;;;;1.13;1.00;;;;;;;;;;5032664;28;20202;-25
2023/03/27 04:33:38;;;;;;;2.53;1.00;;;;;;;;;;5019014;28;20223;-29
2023/03/27 04:36:06;;;;;;;1.60;1.03;;;;;;;;;;5012286;28;20234;-28
2023/03/27 04:38:35;;;;;;;3.70;1.20;;;;;;;;;;5019713;28;20207;-26
2023/03/27 04:41:02;;;;;;;3.67;1.50;;;;;;;;;;5022896;28;20214;-26
2023/03/27 04:43:38;;;;;;;2.83;1.40;;;;;;;;;;5022995;28;20229;-26
2023/03/27 04:46:06;;;;;;;3.00;1.40;;;;;;;;;;5027470;28;20210;-27
2023/03/27 04:48:33;;;;;;;4.27;1.23;;;;;;;;;;5028656;28;20199;-28
2023/03/27 04:51:00;;;;;;;3.03;1.40;;;;;;;;;;5030006;28;20211;-26
2023/03/27 04:53:29;;;;;;;3.60;1.40;;;;;;;;;;5025707;28;20246;-27
2023/03/27 04:55:56;;;;;;;3.70;1.70;;;;;;;;;;5028764;28;20210;-30
2023/03/27 04:58:24;;;;;;;6.00;1.47;;;;;;;;;;5026252;28;20228;-26
2023/03/27 05:00:54;;;;;;;3.57;1.97;;;;;;;;;;5024810;28;20294;-26
2023/03/27 05:03:22;;;;;;;4.33;2.20;;;;;;;;;;5024845;28;20222;-28
2023/03/27 05:05:50;;;;;;;6.50;2.20;;;;;;;;;;5016628;28;20231;-29
2023/03/27 05:08:17;;;;;;;6.40;2.33;;;;;;;;;;5027814;28;20202;-29
2023/03/27 05:10:44;;;;;;;3.50;2.27;;;;;;;;;;5026006;28;20204;-26
2023/03/27 05:13:11;;;;;;;6.00;2.80;;;;;;;;;;5027312;28;20225;-28
2023/03/27 05:15:39;;;;;;;5.03;2.33;;;;;;;;;;5027248;28;20203;-30
2023/03/27 05:18:07;;;;;;;6.83;1.70;;;;;;;;;;5025015;28;20222;-25
2023/03/27 05:20:35;;;;;;;2.53;2.00;;;;;;;;;;5019078;28;20198;-27
2023/03/27 05:23:02;;;;;;;6.87;2.50;;;;;;;;;;5024800;28;20412;-26
2023/03/27 05:25:29;;;;;;;4.40;1.97;;;;;;;;;;5026725;28;20289;-26
2023/03/27 05:27:56;;;;;;;5.00;1.60;;;;;;;;;;5028650;28;20209;-28
2023/03/27 05:30:25;;;;;;;4.30;2.23;;;;;;;;;;5023290;28;20198;-28
2023/03/27 05:32:53;;;;;;;1.23;1.13;;;;;;;;;;5023537;28;20245;-28
2023/03/27 05:35:22;;;;;;;5.60;1.87;;;;;;;;;;5017643;28;20206;-26
2023/03/27 05:37:50;;;;;;;6.07;1.93;;;;;;;;;;5018973;28;20658;-26
2023/03/27 05:40:20;;;;;;;7.53;2.13;;;;;;;;;;5026347;28;20199;-25
2023/03/27 05:42:48;;;;;;;2.77;1.53;;;;;;;;;;5019174;28;20230;-26
2023/03/27 05:45:15;;;;;;;3.63;1.70;;;;;;;;;;5029365;28;20787;-27
2023/03/27 05:47:46;;;;;;;5.50;1.60;;;;;;;;;;5017520;28;20327;-25
2023/03/27 05:50:14;;;;;;;6.07;1.80;;;;;;;;;;5015468;28;20203;-28
2023/03/27 05:52:43;;;;;;;9.30;2.00;;;;;;;;;;5015147;28;20317;-26
2023/03/27 05:55:10;;;;;;;2.57;1.43;;;;;;;;;;5025994;28;20212;-26
2023/03/27 05:57:38;;;;;;;5.03;2.00;;;;;;;;;;5031394;28;20229;-27
2023/03/27 06:00:10;;;;;;;4.70;1.80;;;;;;;;;;5021194;28;20202;-29
2023/03/27 06:02:37;;;;;;;5.23;1.77;;;;;;;;;;5031187;28;20249;-27
2023/03/27 06:05:05;;;;;;;5.10;1.57;;;;;;;;;;5015317;28;20226;-26
2023/03/27 06:07:32;;;;;;;5.87;1.73;;;;;;;;;;5015307;28;20195;-28
2023/03/27 06:10:01;;;;;;;6.37;1.87;;;;;;;;;;5026557;28;20212;-28
2023/03/27 06:12:30;;;;;;;3.60;1.30;;;;;;;;;;5028529;28;20401;-27
2023/03/27 06:14:58;;;;;;;9.47;1.90;;;;;;;;;;5025715;28;20198;-28
2023/03/27 06:17:25;;;;;;;6.23;2.27;;;;;;;;;;5028283;28;20234;-27
2023/03/27 06:19:52;;;;;;;5.50;1.77;;;;;;;;;;5034133;28;20199;-25
2023/03/27 06:22:20;;;;;;;7.70;1.67;;;;;;;;;;5033580;28;20205;-27
2023/03/27 06:24:47;;;;;;;2.57;1.20;;;;;;;;;;5033088;28;20201;-27
2023/03/27 06:27:17;;;;;;;3.27;1.40;;;;;;;;;;5019616;28;20201;-27
2023/03/27 06:29:44;;;;;;;7.30;1.90;;;;;;;;;;5017346;28;20246;-26
2023/03/27 06:32:11;;;;;;;2.20;0.90;;;;;;;;;;5033582;28;20297;-27
2023/03/27 06:34:38;;;;;;;7.10;1.80;;;;;;;;;;5033938;28;20237;-25
2023/03/27 06:37:06;;;;;;;3.00;1.53;;;;;;;;;;5034147;28;20214;-25
2023/03/27 06:39:33;;;;;;;5.37;1.57;;;;;;;;;;5032834;28;20231;-26
2023/03/27 06:42:00;;;;;;;6.00;1.60;;;;;;;;;;5025418;28;20215;-26
2023/03/27 06:44:28;;;;;;;1.80;1.10;;;;;;;;;;5031903;28;20234;-26
2023/03/27 06:46:56;;;;;;;5.23;1.63;;;;;;;;;;5034727;28;20199;-26
2023/03/27 06:49:23;;;;;;;3.83;1.37;;;;;;;;;;5025087;28;20191;-25
2023/03/27 06:51:52;;;;;;;3.67;1.50;;;;;;;;;;5031403;28;20225;-25
2023/03/27 06:54:19;;;;;;;3.40;1.50;;;;;;;;;;5016435;28;20223;-26
2023/03/27 06:56:46;;;;;;;7.53;1.83;;;;;;;;;;5021455;28;20222;-26
2023/03/27 06:59:13;;;;;;;5.80;1.57;;;;;;;;;;5026863;28;20204;-25
2023/03/27 07:01:42;;;;;;;4.63;1.40;;;;;;;;;;5031685;28;20212;-28
2023/03/27 07:04:10;;;;;;;5.07;1.33;;;;;;;;;;5024906;28;20219;-26
2023/03/27 07:06:37;;;;;;;8.50;1.73;;;;;;;;;;5028505;28;20205;-29
2023/03/27 07:09:04;;;;;;;5.43;1.50;;;;;;;;;;5040577;28;20210;-28
2023/03/27 07:11:31;;;;;;;5.00;1.57;;;;;;;;;;5023937;28;20198;-25
2023/03/27 07:13:58;;;;;;;5.03;1.50;;;;;;;;;;5018859;28;20214;-25
2023/03/27 07:16:26;;;;;;;1.97;1.00;;;;;;;;;;5028381;28;20201;-26
2023/03/27 07:18:54;;;;;;;7.83;1.60;;;;;;;;;;5017838;28;20199;-28
2023/03/27 07:21:21;;;;;;;6.53;1.47;;;;;;;;;;5033726;28;20198;-26
2023/03/27 07:23:48;;;;;;;4.33;1.50;;;;;;;;;;5028007;28;20229;-27
2023/03/27 07:26:16;;;;;;;5.07;1.50;;;;;;;;;;5018612;28;20195;-28
2023/03/27 07:28:43;;;;;;;3.20;1.50;;;;;;;;;;5013893;28;20214;-26
2023/03/27 07:31:12;;;;;;;4.63;1.77;;;;;;;;;;5019520;28;20210;-26
2023/03/27 07:33:39;;;;;;;3.37;1.43;;;;;;;;;;5018492;28;20242;-26
2023/03/27 07:36:09;;;;;;;1.13;0.60;;;;;;;;;;5013836;28;20218;-27
2023/03/27 07:38:36;;;;;;;5.87;1.40;;;;;;;;;;5012848;28;20233;-28
2023/03/27 07:41:05;;;;;;;2.27;1.20;;;;;;;;;;5023440;28;20201;-26
2023/03/27 07:43:33;;;;;;;1.30;0.63;;;;;;;;;;5028156;28;20214;-26
2023/03/27 07:46:00;;;;;;;0.80;0.60;;;;;;;;;;5025438;28;20202;-28
2023/03/27 07:48:28;;;;;;;3.47;1.73;;;;;;;;;;5023808;28;20195;-27
2023/03/27 07:50:57;;;;;;;3.87;1.37;;;;;;;;;;5013861;28;20261;-27
2023/03/27 07:53:26;;;;;;;7.07;1.30;;;;;;;;;;5021334;28;20219;-26
2023/03/27 07:55:57;;;;;;;6.87;1.47;;;;;;;;;;5034502;28;20228;-27
2023/03/27 07:58:24;;;;;;;3.17;1.30;;;;;;;;;;5033064;28;20301;-27
2023/03/27 08:00:52;;;;;;;2.03;1.20;;;;;;;;;;5035702;28;20195;-26
2023/03/27 08:03:20;;;;;;;4.87;1.57;;;;;;;;;;5021972;28;20244;-27
2023/03/27 08:05:53;;;;;;;3.83;1.07;;;;;;;;;;5017329;28;20215;-26
2023/03/27 08:08:20;;;;;;;1.77;1.17;;;;;;;;;;5013199;28;20238;-27
2023/03/27 08:10:49;;;;;;;2.20;1.10;;;;;;;;;;5026472;28;20211;-25
2023/03/27 08:13:17;;;;;;;4.70;1.30;;;;;;;;;;5023909;28;20229;-29
2023/03/27 08:15:44;;;;;;;4.33;0.80;;;;;;;;;;5027325;28;20297;-28
2023/03/27 08:18:11;;;;;;;4.10;1.20;;;;;;;;;;5024745;28;20221;-28
2023/03/27 08:20:39;;;;;;;3.27;1.30;;;;;;;;;;5029283;28;20225;-27
2023/03/27 08:23:07;;;;;;;3.73;1.10;;;;;;;;;;5023330;28;20284;-26
2023/03/27 08:25:35;;;;;;;3.17;1.27;;;;;;;;;;5030599;28;20194;-25
2023/03/27 08:28:03;;;;;;;6.40;1.30;;;;;;;;;;5023792;28;20212;-28
2023/03/27 08:30:30;;;;;;;8.07;1.80;;;;;;;;;;5017348;28;20298;-27
2023/03/27 08:32:58;;;;;;;3.67;1.20;;;;;;;;;;5024466;28;20301;-26
2023/03/27 08:35:26;;;;;;;7.80;3.03;;;;;;;;;;5014427;28;20202;-27
2023/03/27 08:37:53;;;;;;;3.10;1.40;;;;;;;;;;5012162;28;20225;-25
2023/03/27 08:40:22;;;;;;;6.60;1.80;;;;;;;;;;5014975;28;20201;-26
2023/03/27 08:42:53;;;;;;;3.23;1.37;;;;;;;;;;5021512;28;20218;-28
2023/03/27 08:45:25;;;;;;;3.47;1.40;;;;;;;;;;5129391;23;20249;-29
2023/03/27 08:47:54;;;;;;;1.57;0.83;;;;;;;;;;5033942;28;20302;-26
2023/03/27 08:50:33;;;;;;;2.47;1.27;;;;;;;;;;5031321;28;20203;-30
2023/03/27 08:53:00;;;;;;;2.50;1.20;;;;;;;;;;5034171;28;20279;-27
2023/03/27 08:55:33;;;;;;;3.80;1.23;;;;;;;;;;5031108;28;20207;-26
2023/03/27 08:58:00;;;;;;;4.30;1.50;;;;;;;;;;5012924;28;20227;-27
2023/03/27 09:00:30;;;;;;;8.30;2.63;;;;;;;;;;5018623;28;20205;-28
2023/03/27 09:03:00;;;;;;;3.30;1.20;;;;;;;;;;5025342;28;20254;-28
2023/03/27 09:05:34;;;;;;;4.97;1.33;;;;;;;;;;5016241;28;20207;-29
2023/03/27 09:08:05;;;;;;;2.53;1.33;;;;;;;;;;5029094;28;20202;-29
2023/03/27 09:10:34;;;;;;;3.07;1.17;;;;;;;;;;5026303;28;20199;-26
2023/03/27 09:13:04;;;;;;;3.10;1.30;;;;;;;;;;5024580;28;20257;-27
2023/03/27 09:15:35;;;;;;;1.80;1.30;;;;;;;;;;5030029;28;20219;-30
2023/03/27 09:18:05;;;;;;;3.37;1.47;;;;;;;;;;5026933;28;20301;-29
2023/03/27 09:20:35;;;;;;;2.87;1.40;;;;;;;;;;5031377;28;20198;-27
2023/03/27 09:23:04;;;;;;;3.40;1.20;;;;;;;;;;5012071;28;20227;-29
2023/03/27 09:25:35;;;;;;;1.40;0.80;;;;;;;;;;5027814;28;20294;-29
2023/03/27 09:28:02;;;;;;;3.43;1.50;;;;;;;;;;5025758;28;20206;-25
2023/03/27 09:30:30;;;;;;;3.57;1.20;;;;;;;;;;5027438;28;20206;-26
2023/03/27 09:33:00;;;;;;;3.00;1.20;;;;;;;;;;5017402;28;20801;-26
2023/03/27 09:35:42;;;;;;;7.33;1.20;;;;;;;;;;5028176;28;20203;-26
2023/03/27 09:38:22;;;;;;;1.53;0.70;;;;;;;;;;5027968;28;20214;-30
2023/03/27 09:40:51;;;;;;;4.30;1.17;;;;;;;;;;5042319;28;20211;-27
2023/03/27 09:43:40;;;;;;;3.30;1.40;;;;;;;;;;5031461;28;20226;-27
2023/03/27 09:46:08;;;;;;;1.63;1.07;;;;;;;;;;5026006;28;20236;-29
2023/03/27 09:48:38;;;;;;;3.43;1.07;;;;;;;;;;5030618;28;20198;-25
2023/03/27 09:51:06;;;;;;;2.57;1.47;;;;;;;;;;5010824;28;20276;-27
2023/03/27 09:53:34;;;;;;;2.00;0.93;;;;;;;;;;5009369;28;20223;-29
2023/03/27 09:56:03;;;;;;;1.30;0.90;;;;;;;;;;5023571;28;20234;-25
2023/03/27 09:58:32;;;;;;;2.57;1.10;;;;;;;;;;5021899;28;20230;-29
2023/03/27 10:01:07;;;;;;;3.30;1.20;;;;;;;;;;5020954;28;20199;-26
2023/03/27 10:03:39;;;;;;;2.63;1.00;;;;;;;;;;5033160;28;20222;-28
2023/03/27 10:06:07;;;;;;;1.80;0.90;;;;;;;;;;5031303;28;20199;-28
2023/03/27 10:08:37;;;;;;;1.97;0.70;;;;;;;;;;5029414;28;20260;-27
2023/03/27 10:11:07;;;;;;;3.07;1.40;;;;;;;;;;5032418;28;20203;-29
2023/03/27 10:13:35;;;;;;;6.43;2.83;;;;;;;;;;5013465;28;20298;-29
2023/03/27 10:16:04;;;;;;;2.43;1.07;;;;;;;;;;5022360;28;20211;-29
2023/03/27 10:18:31;;;;;;;1.67;1.30;;;;;;;;;;5023046;28;20226;-29
2023/03/27 10:21:01;;;;;;;2.97;1.00;;;;;;;;;;5014145;28;20229;-26
2023/03/27 10:23:29;;;;;;;2.73;0.93;;;;;;;;;;5024433;28;20236;-27
2023/03/27 10:26:00;;;;;;;2.27;0.80;;;;;;;;;;5020501;28;20207;-47
2023/03/27 10:28:28;;;;;;;3.67;1.53;;;;;;;;;;5013827;28;20299;-27
2023/03/27 10:30:59;;;;;;;3.47;1.17;;;;;;;;;;5018238;28;20209;-25
2023/03/27 10:33:35;;;;;;;2.53;1.13;;;;;;;;;;5032838;28;20226;-27
2023/03/27 10:36:05;;;;;;;4.40;1.27;;;;;;;;;;5033367;28;20269;-26
2023/03/27 10:38:32;;;;;;;3.70;1.00;;;;;;;;;;5032946;28;20226;-29
2023/03/27 10:41:00;;;;;;;1.57;0.90;;;;;;;;;;5029872;28;20206;-26
2023/03/27 10:43:29;;;;;;;3.43;1.03;;;;;;;;;;5019325;28;20259;-27
2023/03/27 10:45:58;;;;;;;2.07;1.30;;;;;;;;;;5025647;28;20217;-24
2023/03/27 10:48:32;;;;;;;3.53;1.23;;;;;;;;;;5017247;28;20314;-27
2023/03/27 10:51:02;;;;;;;3.40;1.20;;;;;;;;;;5013741;28;20199;-27
2023/03/27 10:53:36;;;;;;;0.60;0.60;;;;;;;;;;5027402;28;20601;-28
2023/03/27 10:56:09;;;;;;;2.10;0.70;;;;;;;;;;5032393;28;20291;-26
2023/03/27 10:58:39;;;;;;;5.67;1.07;;;;;;;;;;5012146;28;20219;-28
2023/03/27 11:01:12;;;;;;;2.80;1.07;;;;;;;;;;5020910;28;20215;-28
2023/03/27 11:03:46;;;;;;;0.97;0.80;;;;;;;;;;5023051;28;20215;-26
2023/03/27 11:06:16;;;;;;;3.10;1.13;;;;;;;;;;5033223;28;20186;-28
2023/03/27 11:08:50;;;;;;;2.43;0.83;;;;;;;;;;5030421;28;20217;-29
2023/03/27 11:11:20;;;;;;;2.00;0.73;;;;;;;;;;5030767;28;20203;-27
2023/03/27 11:13:48;;;;;;;3.90;1.30;;;;;;;;;;5024255;28;20277;-29
2023/03/27 11:16:17;;;;;;;2.77;0.93;;;;;;;;;;5030245;28;20203;-27
2023/03/27 11:18:47;;;;;;;1.33;1.20;;;;;;;;;;5018750;28;20237;-27
2023/03/27 11:21:17;;;;;;;5.40;1.07;;;;;;;;;;5017253;28;20230;-28
2023/03/27 11:23:47;;;;;;;1.80;1.00;;;;;;;;;;5013326;28;20237;-28
2023/03/27 11:26:22;;;;;;;2.13;1.00;;;;;;;;;;5018401;28;20218;-28
2023/03/27 11:28:57;;;;;;;2.07;0.97;;;;;;;;;;5029687;28;20186;-25
2023/03/27 11:31:33;;;;;;;3.00;0.90;;;;;;;;;;5046408;28;20645;-25
2023/03/27 11:34:04;;;;;;;2.23;1.00;;;;;;;;;;5019047;28;20231;-27
2023/03/27 11:36:38;;;;;;;0.60;0.60;;;;;;;;;;5031490;28;20202;-29
2023/03/27 11:39:14;;;;;;;1.90;0.50;;;;;;;;;;5025741;28;20277;-28
2023/03/27 11:41:43;;;;;;;2.63;0.70;;;;;;;;;;5030221;28;20210;-26
2023/03/27 11:44:10;;;;;;;1.70;0.90;;;;;;;;;;5033845;28;20234;-29
2023/03/27 11:46:48;;;;;;;3.43;1.20;;;;;;;;;;5021538;28;20202;-26
2023/03/27 11:49:22;;;;;;;2.43;0.80;;;;;;;;;;5027110;28;20205;-28
2023/03/27 11:51:57;;;;;;;0.60;0.60;;;;;;;;;;5033322;28;20214;-27
2023/03/27 11:54:33;;;;;;;1.80;0.90;;;;;;;;;;5022264;28;20218;-28
2023/03/27 11:57:03;;;;;;;0.80;0.53;;;;;;;;;;5032091;28;20202;-27
2023/03/27 11:59:42;;;;;;;0.80;0.50;;;;;;;;;;5023326;28;20233;-26
2023/03/27 12:02:17;;;;;;;1.73;0.63;;;;;;;;;;5032605;28;20201;-29
2023/03/27 12:04:45;;;;;;;2.73;0.77;;;;;;;;;;5019803;28;20203;-28
2023/03/27 12:07:17;;;;;;;5.37;1.00;;;;;;;;;;5025177;28;20209;-28
2023/03/27 12:09:51;;;;;;;3.40;1.13;;;;;;;;;;5031405;28;20197;-28
2023/03/27 12:12:31;;;;;;;1.83;0.60;;;;;;;;;;5020383;28;20203;-29
2023/03/27 12:15:02;;;;;;;3.00;0.97;;;;;;;;;;5024009;28;20210;-28
2023/03/27 12:17:38;;;;;;;6.50;1.20;;;;;;;;;;5020850;28;20215;-28
2023/03/27 12:20:24;;;;;;;3.47;1.10;;;;;;;;;;5022206;28;20228;-28
2023/03/27 12:22:56;;;;;;;3.93;1.10;;;;;;;;;;5025334;28;20231;-26
2023/03/27 12:25:30;;;;;;;2.57;1.20;;;;;;;;;;5020266;28;20199;-29
2023/03/27 12:28:05;;;;;;;0.77;0.60;;;;;;;;;;5029545;28;20228;-27
2023/03/27 12:30:37;;;;;;;0.90;0.60;;;;;;;;;;5031303;28;20198;-27
2023/03/27 12:33:14;;;;;;;1.70;0.57;;;;;;;;;;5015900;28;20220;-29
2023/03/27 12:35:43;;;;;;;1.60;0.90;;;;;;;;;;5024267;28;20214;-29
2023/03/27 12:38:14;;;;;;;1.80;1.03;;;;;;;;;;5031939;28;20218;-25
2023/03/27 12:40:48;;;;;;;3.43;0.63;;;;;;;;;;5011117;28;20196;-29
2023/03/27 12:43:26;;;;;;;4.63;0.80;;;;;;;;;;5014221;28;20231;-30
2023/03/27 12:46:12;;;;;;;1.50;0.77;;;;;;;;;;5026635;28;20211;-27
2023/03/27 12:48:51;;;;;;;1.23;0.40;;;;;;;;;;5020746;28;20199;-28
2023/03/27 12:51:19;;;;;;;3.87;1.20;;;;;;;;;;5014664;28;20261;-27
2023/03/27 12:53:47;;;;;;;2.93;0.53;;;;;;;;;;5021828;28;20223;-26
2023/03/27 12:56:30;;;;;;;1.70;1.00;;;;;;;;;;5018069;28;20200;-29
2023/03/27 12:58:59;;;;;;;1.20;0.63;;;;;;;;;;5022762;28;20298;-27
2023/03/27 13:01:43;;;;;;;2.23;0.90;;;;;;;;;;5027611;28;20297;-25
2023/03/27 13:04:37;;;;;;;1.70;0.93;;;;;;;;;;5013932;28;20239;-42
2023/03/27 13:07:07;;;;;;;2.60;1.17;;;;;;;;;;5007692;28;20208;-28
2023/03/27 13:09:45;;;;;;;5.57;1.50;;;;;;;;;;5023706;28;20293;-28
2023/03/27 13:12:21;;;;;;;3.03;0.63;;;;;;;;;;5022784;28;20207;-27
2023/03/27 13:15:05;;;;;;;0.70;0.70;;;;;;;;;;5027556;28;20208;-27
2023/03/27 13:17:41;;;;;;;4.60;1.10;;;;;;;;;;5031112;28;20206;-26
2023/03/27 13:20:15;;;;;;;2.77;0.80;;;;;;;;;;5024883;28;20213;-28
2023/03/27 13:22:49;;;;;;;1.57;0.60;;;;;;;;;;5022740;28;20236;-29
2023/03/27 13:25:25;;;;;;;3.53;1.00;;;;;;;;;;5035881;28;20209;-28
2023/03/27 13:28:03;;;;;;;0.90;0.73;;;;;;;;;;5032965;28;20194;-30
2023/03/27 13:30:41;;;;;;;3.37;0.80;;;;;;;;;;5031835;28;20294;-26
2023/03/27 13:33:11;;;;;;;1.20;0.70;;;;;;;;;;5019313;28;20241;-27
2023/03/27 13:35:42;;;;;;;2.87;0.83;;;;;;;;;;5038157;28;20290;-26
2023/03/27 13:41:53;;;;;;;1.20;0.70;;;;;;;;;;5026302;28;20246;-27
2023/03/27 13:44:24;;;;;;;1.67;0.90;;;;;;;;;;5016931;28;20226;-27
2023/03/27 13:46:54;;;;;;;3.53;0.90;;;;;;;;;;5028477;28;20212;-28
2023/03/27 13:49:32;;;;;;;3.07;1.30;;;;;;;;;;5020992;28;20580;-26
2023/03/27 13:52:15;;;;;;;1.13;0.73;;;;;;;;;;5032598;28;20195;-27
2023/03/27 13:54:56;;;;;;;2.03;0.90;;;;;;;;;;5041965;28;20731;-27
2023/03/27 13:57:33;;;;;;;3.90;0.90;;;;;;;;;;5031319;28;20560;-28
2023/03/27 14:00:17;;;;;;;1.70;0.70;;;;;;;;;;5020984;28;20226;-25
2023/03/27 14:02:59;;;;;;;3.90;1.20;;;;;;;;;;5024113;28;20245;-28
2023/03/27 14:05:36;;;;;;;0.97;0.90;;;;;;;;;;5015764;28;20226;-28
2023/03/27 14:08:21;;;;;;;3.63;1.03;;;;;;;;;;5016080;28;20195;-27
2023/03/27 14:10:57;;;;;;;2.00;1.10;;;;;;;;;;5024516;28;20213;-29
2023/03/27 14:13:38;;;;;;;1.33;0.87;;;;;;;;;;5023198;28;20228;-26
2023/03/27 14:16:16;;;;;;;2.13;0.80;;;;;;;;;;5024037;28;20199;-29
2023/03/27 14:19:07;;;;;;;3.33;1.17;;;;;;;;;;5023169;28;20210;-29
2023/03/27 14:21:51;;;;;;;2.10;1.27;;;;;;;;;;5021909;28;20209;-27
2023/03/27 14:24:25;;;;;;;2.60;0.80;;;;;;;;;;5030428;28;20248;-29
2023/03/27 14:26:53;;;;;;;2.20;1.00;;;;;;;;;;5038204;28;20210;-26
2023/03/27 14:29:21;;;;;;;0.90;0.80;;;;;;;;;;5015354;28;20267;-27
2023/03/27 14:31:49;;;;;;;1.00;0.77;;;;;;;;;;5025782;28;20211;-28
2023/03/27 14:34:21;;;;;;;5.47;1.20;;;;;;;;;;5021254;28;20237;-28
2023/03/27 14:36:52;;;;;;;2.43;0.90;;;;;;;;;;5013156;28;20207;-27
2023/03/27 14:39:21;;;;;;;4.23;1.30;;;;;;;;;;5028449;28;20277;-30
2023/03/27 14:41:49;;;;;;;1.87;0.80;;;;;;;;;;5029471;28;20208;-28
2023/03/27 14:44:18;;;;;;;2.27;0.97;;;;;;;;;;5029947;28;20237;-30
2023/03/27 14:46:46;;;;;;;1.60;1.00;;;;;;;;;;5025168;28;20210;-28
2023/03/27 14:49:18;;;;;;;1.10;1.00;;;;;;;;;;5024287;28;20210;-28
2023/03/27 14:51:48;;;;;;;2.67;0.90;;;;;;;;;;5012651;28;20258;-28
2023/03/27 14:54:25;;;;;;;1.40;1.17;;;;;;;;;;5028280;28;20226;-27
2023/03/27 14:57:00;;;;;;;2.70;0.87;;;;;;;;;;5033613;28;20300;-28
2023/03/27 14:59:29;;;;;;;1.70;1.00;;;;;;;;;;5027726;28;20211;-29
2023/03/27 15:01:57;;;;;;;2.73;1.00;;;;;;;;;;5023330;28;20203;-31
2023/03/27 15:04:25;;;;;;;2.27;1.00;;;;;;;;;;5019339;28;20215;-26
2023/03/27 15:06:55;;;;;;;2.70;1.13;;;;;;;;;;5035059;28;20249;-26